sensor_id;sensor_type;location;lat;lon;timestamp;temperature;humidity
16846;DHT22;8539;53.188;8.696;2023-05-10T00:00:22;14.60;99.90
16846;DHT22;8539;53.188;8.696;2023-05-10T00:02:50;14.60;99.90
16846;DHT22;8539;53.188;8.696;2023-05-10T00:05:17;14.50;99.90
16846;DHT22;8539;53.188;8.696;2023-05-10T00:07:43;14.50;99.90
16846;DHT22;8539;53.188;8.696;2023-05-10T00:10:12;14.50;99.90
16846;DHT22;8539;53.188;8.696;2023-05-10T00:12:38;14.50;99.90
16846;DHT22;8539;53.188;8.696;2023-05-10T00:15:05;14.50;99.90
16846;DHT22;8539;53.188;8.696;2023-05-10T00:17:31;14.40;99.90
16846;DHT22;8539;53.188;8.696;2023-05-10T00:19:57;14.40;99.90
16846;DHT22;8539;53.188;8.696;2023-05-10T00:22:24;14.30;99.90
16846;DHT22;8539;53.188;8.696;2023-05-10T00:24:50;14.30;99.90
16846;DHT22;8539;53.188;8.696;2023-05-10T00:27:16;14.20;99.90
16846;DHT22;8539;53.188;8.696;2023-05-10T00:29:42;14.20;99.90
16846;DHT22;8539;53.188;8.696;2023-05-10T00:32:08;14.10;99.90
16846;DHT22;8539;53.188;8.696;2023-05-10T00:34:34;14.10;99.90
16846;DHT22;8539;53.188;8.696;2023-05-10T00:37:00;14.00;99.90
16846;DHT22;8539;53.188;8.696;2023-05-10T00:39:27;14.00;99.90
16846;DHT22;8539;53.188;8.696;2023-05-10T00:41:54;14.00;99.90
16846;DHT22;8539;53.188;8.696;2023-05-10T00:44:20;13.90;99.90
16846;DHT22;8539;53.188;8.696;2023-05-10T00:46:48;13.90;99.90
16846;DHT22;8539;53.188;8.696;2023-05-10T00:49:15;13.80;99.90
16846;DHT22;8539;53.188;8.696;2023-05-10T00:51:41;13.80;99.90
16846;DHT22;8539;53.188;8.696;2023-05-10T00:54:14;13.70;99.90
16846;DHT22;8539;53.188;8.696;2023-05-10T00:56:40;13.70;99.90
16846;DHT22;8539;53.188;8.696;2023-05-10T00:59:08;13.60;99.90
16846;DHT22;8539;53.188;8.696;2023-05-10T01:01:35;13.60;99.90
16846;DHT22;8539;53.188;8.696;2023-05-10T01:04:02;13.50;99.90
16846;DHT22;8539;53.188;8.696;2023-05-10T01:06:29;13.50;99.90
16846;DHT22;8539;53.188;8.696;2023-05-10T01:08:56;13.40;99.90
16846;DHT22;8539;53.188;8.696;2023-05-10T01:11:22;13.40;99.90
16846;DHT22;8539;53.188;8.696;2023-05-10T01:13:55;13.30;99.90
16846;DHT22;8539;53.188;8.696;2023-05-10T01:16:23;13.20;99.90
16846;DHT22;8539;53.188;8.696;2023-05-10T01:18:49;13.10;99.90
16846;DHT22;8539;53.188;8.696;2023-05-10T01:32:45;12.90;99.90
16846;DHT22;8539;53.188;8.696;2023-05-10T01:35:31;12.90;99.90
16846;DHT22;8539;53.188;8.696;2023-05-10T01:40:56;12.80;99.90
16846;DHT22;8539;53.188;8.696;2023-05-10T01:43:41;12.70;99.90
16846;DHT22;8539;53.188;8.696;2023-05-10T01:46:20;12.70;99.90
16846;DHT22;8539;53.188;8.696;2023-05-10T01:48:56;12.70;99.90
16846;DHT22;8539;53.188;8.696;2023-05-10T01:51:25;12.60;99.90
16846;DHT22;8539;53.188;8.696;2023-05-10T01:54:02;12.60;99.90
16846;DHT22;8539;53.188;8.696;2023-05-10T01:56:30;12.50;99.90
16846;DHT22;8539;53.188;8.696;2023-05-10T01:58:58;12.50;99.90
16846;DHT22;8539;53.188;8.696;2023-05-10T02:01:26;12.50;99.90
16846;DHT22;8539;53.188;8.696;2023-05-10T02:03:54;12.50;99.90
16846;DHT22;8539;53.188;8.696;2023-05-10T02:06:24;12.40;99.90
16846;DHT22;8539;53.188;8.696;2023-05-10T02:08:52;12.40;99.90
16846;DHT22;8539;53.188;8.696;2023-05-10T02:11:19;12.40;99.90
16846;DHT22;8539;53.188;8.696;2023-05-10T02:13:49;12.40;99.90
16846;DHT22;8539;53.188;8.696;2023-05-10T02:16:17;12.40;99.90
16846;DHT22;8539;53.188;8.696;2023-05-10T02:18:44;12.30;99.90
16846;DHT22;8539;53.188;8.696;2023-05-10T02:21:13;12.30;99.90
16846;DHT22;8539;53.188;8.696;2023-05-10T02:23:40;12.30;99.90
16846;DHT22;8539;53.188;8.696;2023-05-10T02:26:06;12.30;99.90
16846;DHT22;8539;53.188;8.696;2023-05-10T02:28:33;12.30;99.90
16846;DHT22;8539;53.188;8.696;2023-05-10T02:31:01;12.30;99.90
16846;DHT22;8539;53.188;8.696;2023-05-10T02:33:29;12.30;99.90
16846;DHT22;8539;53.188;8.696;2023-05-10T02:35:57;12.30;99.90
16846;DHT22;8539;53.188;8.696;2023-05-10T02:38:25;12.30;99.90
16846;DHT22;8539;53.188;8.696;2023-05-10T02:40:52;12.30;99.90
16846;DHT22;8539;53.188;8.696;2023-05-10T02:43:21;12.20;99.90
16846;DHT22;8539;53.188;8.696;2023-05-10T02:45:49;12.20;99.90
16846;DHT22;8539;53.188;8.696;2023-05-10T02:48:15;12.20;99.90
16846;DHT22;8539;53.188;8.696;2023-05-10T02:50:46;12.20;99.90
16846;DHT22;8539;53.188;8.696;2023-05-10T02:53:22;12.20;99.90
16846;DHT22;8539;53.188;8.696;2023-05-10T02:55:51;12.20;99.90
16846;DHT22;8539;53.188;8.696;2023-05-10T02:58:18;12.20;99.90
16846;DHT22;8539;53.188;8.696;2023-05-10T03:00:48;12.20;99.90
16846;DHT22;8539;53.188;8.696;2023-05-10T03:03:14;12.20;99.90
16846;DHT22;8539;53.188;8.696;2023-05-10T03:05:40;12.20;99.90
16846;DHT22;8539;53.188;8.696;2023-05-10T03:08:06;12.20;99.90
16846;DHT22;8539;53.188;8.696;2023-05-10T03:10:34;12.20;99.90
16846;DHT22;8539;53.188;8.696;2023-05-10T03:16:08;12.20;99.90
16846;DHT22;8539;53.188;8.696;2023-05-10T03:21:11;12.10;99.90
16846;DHT22;8539;53.188;8.696;2023-05-10T03:23:47;12.00;99.90
16846;DHT22;8539;53.188;8.696;2023-05-10T03:26:26;12.00;99.90
16846;DHT22;8539;53.188;8.696;2023-05-10T03:28:53;12.00;99.90
16846;DHT22;8539;53.188;8.696;2023-05-10T03:31:21;12.00;99.90
16846;DHT22;8539;53.188;8.696;2023-05-10T03:33:51;11.90;99.90
16846;DHT22;8539;53.188;8.696;2023-05-10T03:36:18;11.90;99.90
16846;DHT22;8539;53.188;8.696;2023-05-10T03:38:44;11.90;99.90
16846;DHT22;8539;53.188;8.696;2023-05-10T03:41:11;11.90;99.90
16846;DHT22;8539;53.188;8.696;2023-05-10T03:43:37;11.90;99.90
16846;DHT22;8539;53.188;8.696;2023-05-10T03:46:04;11.90;99.90
16846;DHT22;8539;53.188;8.696;2023-05-10T03:48:30;11.90;99.90
16846;DHT22;8539;53.188;8.696;2023-05-10T03:50:56;11.80;99.90
16846;DHT22;8539;53.188;8.696;2023-05-10T03:53:22;11.80;99.90
16846;DHT22;8539;53.188;8.696;2023-05-10T03:55:49;11.80;99.90
16846;DHT22;8539;53.188;8.696;2023-05-10T03:58:15;11.80;99.90
16846;DHT22;8539;53.188;8.696;2023-05-10T04:00:41;11.80;99.90
16846;DHT22;8539;53.188;8.696;2023-05-10T04:03:11;11.80;99.90
16846;DHT22;8539;53.188;8.696;2023-05-10T04:05:38;11.80;99.90
16846;DHT22;8539;53.188;8.696;2023-05-10T04:08:04;11.70;99.90
16846;DHT22;8539;53.188;8.696;2023-05-10T04:10:31;11.70;99.90
16846;DHT22;8539;53.188;8.696;2023-05-10T04:12:57;11.70;99.90
16846;DHT22;8539;53.188;8.696;2023-05-10T04:15:23;11.70;99.90
16846;DHT22;8539;53.188;8.696;2023-05-10T04:17:49;11.70;99.90
16846;DHT22;8539;53.188;8.696;2023-05-10T04:20:16;11.70;99.90
16846;DHT22;8539;53.188;8.696;2023-05-10T04:22:42;11.70;99.90
16846;DHT22;8539;53.188;8.696;2023-05-10T04:25:09;11.70;99.90
16846;DHT22;8539;53.188;8.696;2023-05-10T04:27:35;11.80;99.90
16846;DHT22;8539;53.188;8.696;2023-05-10T04:30:01;11.70;99.90
16846;DHT22;8539;53.188;8.696;2023-05-10T04:32:27;11.70;99.90
16846;DHT22;8539;53.188;8.696;2023-05-10T04:34:53;11.70;99.90
16846;DHT22;8539;53.188;8.696;2023-05-10T04:37:20;11.70;99.90
16846;DHT22;8539;53.188;8.696;2023-05-10T04:39:47;11.70;99.90
16846;DHT22;8539;53.188;8.696;2023-05-10T04:42:13;11.80;99.90
16846;DHT22;8539;53.188;8.696;2023-05-10T04:44:40;11.80;99.90
16846;DHT22;8539;53.188;8.696;2023-05-10T04:47:06;11.70;99.90
16846;DHT22;8539;53.188;8.696;2023-05-10T04:49:32;11.70;99.90
16846;DHT22;8539;53.188;8.696;2023-05-10T04:51:58;11.80;99.90
16846;DHT22;8539;53.188;8.696;2023-05-10T04:54:25;11.80;99.90
16846;DHT22;8539;53.188;8.696;2023-05-10T04:56:51;11.80;99.90
16846;DHT22;8539;53.188;8.696;2023-05-10T04:59:17;11.80;99.90
16846;DHT22;8539;53.188;8.696;2023-05-10T05:01:43;11.80;99.90
16846;DHT22;8539;53.188;8.696;2023-05-10T05:04:09;11.80;99.90
16846;DHT22;8539;53.188;8.696;2023-05-10T05:06:35;11.80;99.90
16846;DHT22;8539;53.188;8.696;2023-05-10T05:09:01;11.90;99.90
16846;DHT22;8539;53.188;8.696;2023-05-10T05:11:28;11.90;99.90
16846;DHT22;8539;53.188;8.696;2023-05-10T05:13:54;11.90;99.90
16846;DHT22;8539;53.188;8.696;2023-05-10T05:16:20;11.90;99.90
16846;DHT22;8539;53.188;8.696;2023-05-10T05:18:46;11.90;99.90
16846;DHT22;8539;53.188;8.696;2023-05-10T05:21:19;11.90;99.90
16846;DHT22;8539;53.188;8.696;2023-05-10T05:23:45;11.90;99.90
16846;DHT22;8539;53.188;8.696;2023-05-10T05:26:12;11.80;99.90
16846;DHT22;8539;53.188;8.696;2023-05-10T05:28:38;11.80;99.90
16846;DHT22;8539;53.188;8.696;2023-05-10T05:31:05;11.80;99.90
16846;DHT22;8539;53.188;8.696;2023-05-10T05:33:31;11.80;99.90
16846;DHT22;8539;53.188;8.696;2023-05-10T05:35:59;11.80;99.90
16846;DHT22;8539;53.188;8.696;2023-05-10T05:38:26;11.70;99.90
16846;DHT22;8539;53.188;8.696;2023-05-10T05:40:52;11.70;99.90
16846;DHT22;8539;53.188;8.696;2023-05-10T05:43:18;11.70;99.90
16846;DHT22;8539;53.188;8.696;2023-05-10T05:45:44;11.80;99.90
16846;DHT22;8539;53.188;8.696;2023-05-10T05:48:10;11.70;99.90
16846;DHT22;8539;53.188;8.696;2023-05-10T05:50:37;11.70;99.90
16846;DHT22;8539;53.188;8.696;2023-05-10T05:53:03;11.70;99.90
16846;DHT22;8539;53.188;8.696;2023-05-10T05:55:29;11.70;99.90
16846;DHT22;8539;53.188;8.696;2023-05-10T05:57:57;11.70;99.90
16846;DHT22;8539;53.188;8.696;2023-05-10T06:00:24;11.70;99.90
16846;DHT22;8539;53.188;8.696;2023-05-10T06:02:50;11.70;99.90
16846;DHT22;8539;53.188;8.696;2023-05-10T06:05:16;11.70;99.90
16846;DHT22;8539;53.188;8.696;2023-05-10T06:07:42;11.70;99.90
16846;DHT22;8539;53.188;8.696;2023-05-10T06:10:09;11.80;99.90
16846;DHT22;8539;53.188;8.696;2023-05-10T06:12:35;11.80;99.90
16846;DHT22;8539;53.188;8.696;2023-05-10T06:15:02;11.80;99.90
16846;DHT22;8539;53.188;8.696;2023-05-10T06:17:28;11.80;99.90
16846;DHT22;8539;53.188;8.696;2023-05-10T06:19:55;11.90;99.90
16846;DHT22;8539;53.188;8.696;2023-05-10T06:22:21;11.90;99.90
16846;DHT22;8539;53.188;8.696;2023-05-10T06:24:49;11.90;99.90
16846;DHT22;8539;53.188;8.696;2023-05-10T06:27:15;11.90;99.90
16846;DHT22;8539;53.188;8.696;2023-05-10T06:29:41;11.90;99.90
16846;DHT22;8539;53.188;8.696;2023-05-10T06:32:07;12.00;99.90
16846;DHT22;8539;53.188;8.696;2023-05-10T06:34:33;12.00;99.90
16846;DHT22;8539;53.188;8.696;2023-05-10T06:37:00;12.00;99.90
16846;DHT22;8539;53.188;8.696;2023-05-10T06:39:26;12.10;99.90
16846;DHT22;8539;53.188;8.696;2023-05-10T06:41:52;12.10;99.90
16846;DHT22;8539;53.188;8.696;2023-05-10T06:44:18;12.00;99.90
16846;DHT22;8539;53.188;8.696;2023-05-10T06:46:45;12.10;99.90
16846;DHT22;8539;53.188;8.696;2023-05-10T06:49:11;12.10;99.90
16846;DHT22;8539;53.188;8.696;2023-05-10T06:51:37;12.10;99.90
16846;DHT22;8539;53.188;8.696;2023-05-10T06:54:03;12.20;99.90
16846;DHT22;8539;53.188;8.696;2023-05-10T06:56:30;12.20;99.90
16846;DHT22;8539;53.188;8.696;2023-05-10T06:58:56;12.20;99.90
16846;DHT22;8539;53.188;8.696;2023-05-10T07:01:22;12.30;99.90
16846;DHT22;8539;53.188;8.696;2023-05-10T07:03:48;12.30;99.90
16846;DHT22;8539;53.188;8.696;2023-05-10T07:06:15;12.30;99.90
16846;DHT22;8539;53.188;8.696;2023-05-10T07:08:41;12.30;99.90
16846;DHT22;8539;53.188;8.696;2023-05-10T07:11:08;12.40;99.90
16846;DHT22;8539;53.188;8.696;2023-05-10T07:13:34;12.50;99.90
16846;DHT22;8539;53.188;8.696;2023-05-10T07:16:00;12.60;99.90
16846;DHT22;8539;53.188;8.696;2023-05-10T07:18:28;12.70;99.90
16846;DHT22;8539;53.188;8.696;2023-05-10T07:20:54;12.80;99.90
16846;DHT22;8539;53.188;8.696;2023-05-10T07:23:21;12.80;99.90
16846;DHT22;8539;53.188;8.696;2023-05-10T07:25:48;12.90;99.90
16846;DHT22;8539;53.188;8.696;2023-05-10T07:28:15;12.90;99.90
16846;DHT22;8539;53.188;8.696;2023-05-10T07:30:42;13.00;99.90
16846;DHT22;8539;53.188;8.696;2023-05-10T07:33:09;13.10;99.90
16846;DHT22;8539;53.188;8.696;2023-05-10T07:35:36;13.10;99.90
16846;DHT22;8539;53.188;8.696;2023-05-10T07:38:02;13.20;99.90
16846;DHT22;8539;53.188;8.696;2023-05-10T07:40:31;13.20;99.90
16846;DHT22;8539;53.188;8.696;2023-05-10T07:42:58;13.30;99.90
16846;DHT22;8539;53.188;8.696;2023-05-10T07:45:27;13.30;99.90
16846;DHT22;8539;53.188;8.696;2023-05-10T07:47:54;13.30;99.90
16846;DHT22;8539;53.188;8.696;2023-05-10T07:50:20;13.40;99.90
16846;DHT22;8539;53.188;8.696;2023-05-10T07:52:47;13.50;99.90
16846;DHT22;8539;53.188;8.696;2023-05-10T07:55:14;13.50;99.90
16846;DHT22;8539;53.188;8.696;2023-05-10T07:57:40;13.60;99.90
16846;DHT22;8539;53.188;8.696;2023-05-10T08:00:07;13.60;99.90
16846;DHT22;8539;53.188;8.696;2023-05-10T08:02:35;13.80;99.90
16846;DHT22;8539;53.188;8.696;2023-05-10T08:05:01;13.80;99.90
16846;DHT22;8539;53.188;8.696;2023-05-10T08:07:27;13.90;99.90
16846;DHT22;8539;53.188;8.696;2023-05-10T08:09:53;14.00;99.90
16846;DHT22;8539;53.188;8.696;2023-05-10T08:12:19;14.10;99.90
16846;DHT22;8539;53.188;8.696;2023-05-10T08:14:45;14.20;99.90
16846;DHT22;8539;53.188;8.696;2023-05-10T08:17:11;14.30;99.90
16846;DHT22;8539;53.188;8.696;2023-05-10T08:19:37;14.40;99.90
16846;DHT22;8539;53.188;8.696;2023-05-10T08:22:03;14.40;99.90
16846;DHT22;8539;53.188;8.696;2023-05-10T08:24:30;14.50;99.90
16846;DHT22;8539;53.188;8.696;2023-05-10T08:26:56;14.50;99.90
16846;DHT22;8539;53.188;8.696;2023-05-10T08:29:22;14.40;99.90
16846;DHT22;8539;53.188;8.696;2023-05-10T08:31:48;14.40;99.90
16846;DHT22;8539;53.188;8.696;2023-05-10T08:34:14;14.40;99.90
16846;DHT22;8539;53.188;8.696;2023-05-10T08:36:44;14.40;99.90
16846;DHT22;8539;53.188;8.696;2023-05-10T08:39:10;14.40;99.90
16846;DHT22;8539;53.188;8.696;2023-05-10T08:41:39;14.40;99.90
16846;DHT22;8539;53.188;8.696;2023-05-10T08:44:07;14.50;99.90
16846;DHT22;8539;53.188;8.696;2023-05-10T08:46:34;14.50;99.90
16846;DHT22;8539;53.188;8.696;2023-05-10T08:49:06;14.50;99.90
16846;DHT22;8539;53.188;8.696;2023-05-10T08:51:36;14.60;99.90
16846;DHT22;8539;53.188;8.696;2023-05-10T08:54:06;14.60;99.90
16846;DHT22;8539;53.188;8.696;2023-05-10T08:56:32;14.70;99.90
16846;DHT22;8539;53.188;8.696;2023-05-10T08:58:59;14.80;99.90
16846;DHT22;8539;53.188;8.696;2023-05-10T09:01:27;14.90;99.90
16846;DHT22;8539;53.188;8.696;2023-05-10T09:03:53;15.00;99.90
16846;DHT22;8539;53.188;8.696;2023-05-10T09:06:20;15.00;99.90
16846;DHT22;8539;53.188;8.696;2023-05-10T09:08:46;15.00;99.90
16846;DHT22;8539;53.188;8.696;2023-05-10T09:11:13;15.00;99.90
16846;DHT22;8539;53.188;8.696;2023-05-10T09:13:40;15.00;99.90
16846;DHT22;8539;53.188;8.696;2023-05-10T09:16:06;15.00;99.90
16846;DHT22;8539;53.188;8.696;2023-05-10T09:18:32;15.10;99.90
16846;DHT22;8539;53.188;8.696;2023-05-10T09:20:58;15.10;99.90
16846;DHT22;8539;53.188;8.696;2023-05-10T09:23:24;15.20;99.90
16846;DHT22;8539;53.188;8.696;2023-05-10T09:26:07;15.30;99.90
16846;DHT22;8539;53.188;8.696;2023-05-10T09:28:56;15.20;99.90
16846;DHT22;8539;53.188;8.696;2023-05-10T09:31:23;15.10;99.90
16846;DHT22;8539;53.188;8.696;2023-05-10T09:33:52;15.10;99.90
16846;DHT22;8539;53.188;8.696;2023-05-10T09:36:19;15.10;99.90
16846;DHT22;8539;53.188;8.696;2023-05-10T09:38:50;15.10;99.90
16846;DHT22;8539;53.188;8.696;2023-05-10T09:41:22;15.10;99.90
16846;DHT22;8539;53.188;8.696;2023-05-10T09:43:48;15.10;99.90
16846;DHT22;8539;53.188;8.696;2023-05-10T09:46:16;15.20;99.90
16846;DHT22;8539;53.188;8.696;2023-05-10T09:48:45;15.30;99.90
16846;DHT22;8539;53.188;8.696;2023-05-10T09:51:25;15.30;99.90
16846;DHT22;8539;53.188;8.696;2023-05-10T09:54:14;15.30;99.90
16846;DHT22;8539;53.188;8.696;2023-05-10T09:56:43;15.30;99.90
16846;DHT22;8539;53.188;8.696;2023-05-10T09:59:11;15.30;99.90
16846;DHT22;8539;53.188;8.696;2023-05-10T10:01:38;15.20;99.90
16846;DHT22;8539;53.188;8.696;2023-05-10T10:04:08;15.10;99.90
16846;DHT22;8539;53.188;8.696;2023-05-10T10:06:39;15.10;99.90
16846;DHT22;8539;53.188;8.696;2023-05-10T10:09:06;15.00;99.90
16846;DHT22;8539;53.188;8.696;2023-05-10T10:11:37;14.90;99.90
16846;DHT22;8539;53.188;8.696;2023-05-10T10:14:05;14.80;99.90
16846;DHT22;8539;53.188;8.696;2023-05-10T10:16:32;14.80;99.90
16846;DHT22;8539;53.188;8.696;2023-05-10T10:18:58;14.80;99.90
16846;DHT22;8539;53.188;8.696;2023-05-10T10:21:24;14.80;99.90
16846;DHT22;8539;53.188;8.696;2023-05-10T10:23:51;14.90;99.90
16846;DHT22;8539;53.188;8.696;2023-05-10T10:26:18;14.90;99.90
16846;DHT22;8539;53.188;8.696;2023-05-10T10:31:40;15.10;99.90
16846;DHT22;8539;53.188;8.696;2023-05-10T10:34:09;15.30;99.90
16846;DHT22;8539;53.188;8.696;2023-05-10T10:36:44;15.40;99.90
16846;DHT22;8539;53.188;8.696;2023-05-10T10:39:14;15.60;99.90
16846;DHT22;8539;53.188;8.696;2023-05-10T10:41:55;15.70;99.90
16846;DHT22;8539;53.188;8.696;2023-05-10T10:52:39;15.90;99.90
16846;DHT22;8539;53.188;8.696;2023-05-10T10:57:46;16.30;99.90
16846;DHT22;8539;53.188;8.696;2023-05-10T11:00:31;16.50;99.90
16846;DHT22;8539;53.188;8.696;2023-05-10T11:03:11;16.60;99.90
16846;DHT22;8539;53.188;8.696;2023-05-10T11:05:46;16.70;99.90
16846;DHT22;8539;53.188;8.696;2023-05-10T11:08:21;16.70;99.90
16846;DHT22;8539;53.188;8.696;2023-05-10T11:16:40;16.50;99.90
16846;DHT22;8539;53.188;8.696;2023-05-10T11:19:12;16.50;99.90
16846;DHT22;8539;53.188;8.696;2023-05-10T11:22:11;16.40;99.90
16846;DHT22;8539;53.188;8.696;2023-05-10T11:24:38;16.30;99.90
16846;DHT22;8539;53.188;8.696;2023-05-10T11:27:05;16.20;99.90
16846;DHT22;8539;53.188;8.696;2023-05-10T11:29:32;16.10;99.90
16846;DHT22;8539;53.188;8.696;2023-05-10T11:31:59;16.00;99.90
16846;DHT22;8539;53.188;8.696;2023-05-10T11:34:27;16.00;99.90
16846;DHT22;8539;53.188;8.696;2023-05-10T11:36:55;16.00;99.90
16846;DHT22;8539;53.188;8.696;2023-05-10T11:39:25;16.10;99.90
16846;DHT22;8539;53.188;8.696;2023-05-10T11:41:51;16.10;99.90
16846;DHT22;8539;53.188;8.696;2023-05-10T11:44:17;16.10;99.90
16846;DHT22;8539;53.188;8.696;2023-05-10T11:46:44;16.10;99.90
16846;DHT22;8539;53.188;8.696;2023-05-10T11:49:13;16.20;99.90
16846;DHT22;8539;53.188;8.696;2023-05-10T11:51:42;16.50;99.90
16846;DHT22;8539;53.188;8.696;2023-05-10T11:54:10;16.80;99.90
16846;DHT22;8539;53.188;8.696;2023-05-10T11:56:38;16.80;99.90
16846;DHT22;8539;53.188;8.696;2023-05-10T11:59:04;16.90;99.90
16846;DHT22;8539;53.188;8.696;2023-05-10T12:01:30;16.90;99.90
16846;DHT22;8539;53.188;8.696;2023-05-10T12:03:57;17.00;99.90
16846;DHT22;8539;53.188;8.696;2023-05-10T12:06:30;17.00;99.90
16846;DHT22;8539;53.188;8.696;2023-05-10T12:08:58;17.00;99.90
16846;DHT22;8539;53.188;8.696;2023-05-10T12:11:25;16.90;99.90
16846;DHT22;8539;53.188;8.696;2023-05-10T12:13:53;16.90;99.90
16846;DHT22;8539;53.188;8.696;2023-05-10T12:16:24;16.80;99.90
16846;DHT22;8539;53.188;8.696;2023-05-10T12:18:53;16.70;99.90
16846;DHT22;8539;53.188;8.696;2023-05-10T12:21:20;16.60;99.90
16846;DHT22;8539;53.188;8.696;2023-05-10T12:23:51;16.50;99.90
16846;DHT22;8539;53.188;8.696;2023-05-10T12:26:18;16.30;99.90
16846;DHT22;8539;53.188;8.696;2023-05-10T12:28:44;16.30;99.90
16846;DHT22;8539;53.188;8.696;2023-05-10T12:31:12;16.30;99.90
16846;DHT22;8539;53.188;8.696;2023-05-10T12:33:43;16.30;99.90
16846;DHT22;8539;53.188;8.696;2023-05-10T12:36:11;16.30;99.90
16846;DHT22;8539;53.188;8.696;2023-05-10T12:38:46;16.20;99.90
16846;DHT22;8539;53.188;8.696;2023-05-10T12:41:17;16.10;99.90
16846;DHT22;8539;53.188;8.696;2023-05-10T12:43:44;16.00;99.90
16846;DHT22;8539;53.188;8.696;2023-05-10T12:46:16;15.90;99.90
16846;DHT22;8539;53.188;8.696;2023-05-10T12:48:43;15.70;99.90
16846;DHT22;8539;53.188;8.696;2023-05-10T12:51:10;15.70;99.90
16846;DHT22;8539;53.188;8.696;2023-05-10T12:53:38;15.70;99.90
16846;DHT22;8539;53.188;8.696;2023-05-10T12:56:05;15.60;99.90
16846;DHT22;8539;53.188;8.696;2023-05-10T12:58:31;15.70;99.90
16846;DHT22;8539;53.188;8.696;2023-05-10T13:00:58;15.70;99.90
16846;DHT22;8539;53.188;8.696;2023-05-10T13:03:25;15.70;99.90
16846;DHT22;8539;53.188;8.696;2023-05-10T13:05:51;15.80;99.90
16846;DHT22;8539;53.188;8.696;2023-05-10T13:08:17;15.80;99.90
16846;DHT22;8539;53.188;8.696;2023-05-10T13:10:43;15.80;99.90
16846;DHT22;8539;53.188;8.696;2023-05-10T13:13:09;15.60;99.90
16846;DHT22;8539;53.188;8.696;2023-05-10T13:15:36;15.50;99.90
16846;DHT22;8539;53.188;8.696;2023-05-10T13:18:02;15.40;99.90
16846;DHT22;8539;53.188;8.696;2023-05-10T13:20:28;15.30;99.90
16846;DHT22;8539;53.188;8.696;2023-05-10T13:22:54;15.20;99.90
16846;DHT22;8539;53.188;8.696;2023-05-10T13:25:21;15.10;99.90
16846;DHT22;8539;53.188;8.696;2023-05-10T13:27:47;15.10;99.90
16846;DHT22;8539;53.188;8.696;2023-05-10T13:30:13;15.00;99.90
16846;DHT22;8539;53.188;8.696;2023-05-10T13:32:39;14.90;99.90
16846;DHT22;8539;53.188;8.696;2023-05-10T13:35:05;14.90;99.90
16846;DHT22;8539;53.188;8.696;2023-05-10T13:37:32;14.90;99.90
16846;DHT22;8539;53.188;8.696;2023-05-10T13:40:01;14.90;99.90
16846;DHT22;8539;53.188;8.696;2023-05-10T13:42:27;14.90;99.90
16846;DHT22;8539;53.188;8.696;2023-05-10T13:44:54;15.00;99.90
16846;DHT22;8539;53.188;8.696;2023-05-10T13:47:20;15.00;99.90
16846;DHT22;8539;53.188;8.696;2023-05-10T13:49:47;15.10;99.90
16846;DHT22;8539;53.188;8.696;2023-05-10T13:52:16;15.10;99.90
16846;DHT22;8539;53.188;8.696;2023-05-10T13:54:43;15.10;99.90
16846;DHT22;8539;53.188;8.696;2023-05-10T13:57:09;15.10;99.90
16846;DHT22;8539;53.188;8.696;2023-05-10T13:59:35;15.10;99.90
16846;DHT22;8539;53.188;8.696;2023-05-10T14:02:01;15.10;99.90
16846;DHT22;8539;53.188;8.696;2023-05-10T14:04:28;15.20;99.90
16846;DHT22;8539;53.188;8.696;2023-05-10T14:06:55;15.30;99.90
16846;DHT22;8539;53.188;8.696;2023-05-10T14:09:21;15.30;99.90
16846;DHT22;8539;53.188;8.696;2023-05-10T14:11:47;15.30;99.90
16846;DHT22;8539;53.188;8.696;2023-05-10T14:14:13;15.40;99.90
16846;DHT22;8539;53.188;8.696;2023-05-10T14:16:45;15.50;99.90
16846;DHT22;8539;53.188;8.696;2023-05-10T14:19:12;15.60;99.90
16846;DHT22;8539;53.188;8.696;2023-05-10T14:21:38;15.70;99.90
16846;DHT22;8539;53.188;8.696;2023-05-10T14:24:04;15.90;99.90
16846;DHT22;8539;53.188;8.696;2023-05-10T14:26:32;16.00;99.90
16846;DHT22;8539;53.188;8.696;2023-05-10T14:28:58;16.10;99.90
16846;DHT22;8539;53.188;8.696;2023-05-10T14:31:25;16.30;99.90
16846;DHT22;8539;53.188;8.696;2023-05-10T14:33:52;16.50;99.90
16846;DHT22;8539;53.188;8.696;2023-05-10T14:36:18;16.70;99.90
16846;DHT22;8539;53.188;8.696;2023-05-10T14:38:44;16.90;99.90
16846;DHT22;8539;53.188;8.696;2023-05-10T14:41:10;17.30;99.90
16846;DHT22;8539;53.188;8.696;2023-05-10T14:43:45;17.70;99.90
16846;DHT22;8539;53.188;8.696;2023-05-10T14:46:11;18.00;99.90
16846;DHT22;8539;53.188;8.696;2023-05-10T14:48:38;18.20;99.90
16846;DHT22;8539;53.188;8.696;2023-05-10T14:51:08;18.20;99.90
16846;DHT22;8539;53.188;8.696;2023-05-10T14:53:35;18.20;99.90
16846;DHT22;8539;53.188;8.696;2023-05-10T14:56:01;18.20;99.90
16846;DHT22;8539;53.188;8.696;2023-05-10T14:58:27;18.20;99.90
16846;DHT22;8539;53.188;8.696;2023-05-10T15:00:53;18.00;99.90
16846;DHT22;8539;53.188;8.696;2023-05-10T15:03:26;17.90;99.90
16846;DHT22;8539;53.188;8.696;2023-05-10T15:05:55;17.70;99.90
16846;DHT22;8539;53.188;8.696;2023-05-10T15:08:34;17.60;99.90
16846;DHT22;8539;53.188;8.696;2023-05-10T15:11:02;17.50;99.90
16846;DHT22;8539;53.188;8.696;2023-05-10T15:13:31;17.30;99.90
16846;DHT22;8539;53.188;8.696;2023-05-10T15:15:59;17.20;99.90
16846;DHT22;8539;53.188;8.696;2023-05-10T15:20:57;16.90;99.90
16846;DHT22;8539;53.188;8.696;2023-05-10T15:23:23;16.80;99.90
16846;DHT22;8539;53.188;8.696;2023-05-10T15:25:50;16.70;99.90
16846;DHT22;8539;53.188;8.696;2023-05-10T15:28:18;16.60;99.90
16846;DHT22;8539;53.188;8.696;2023-05-10T15:30:44;16.40;99.90
16846;DHT22;8539;53.188;8.696;2023-05-10T15:33:10;16.30;99.90
16846;DHT22;8539;53.188;8.696;2023-05-10T15:35:36;16.10;99.90
16846;DHT22;8539;53.188;8.696;2023-05-10T15:38:04;16.00;99.90
16846;DHT22;8539;53.188;8.696;2023-05-10T15:40:30;15.90;99.90
16846;DHT22;8539;53.188;8.696;2023-05-10T15:42:56;15.70;99.90
16846;DHT22;8539;53.188;8.696;2023-05-10T15:45:22;15.60;99.90
16846;DHT22;8539;53.188;8.696;2023-05-10T15:47:48;15.50;99.90
16846;DHT22;8539;53.188;8.696;2023-05-10T15:50:14;15.30;99.90
16846;DHT22;8539;53.188;8.696;2023-05-10T15:52:41;15.20;99.90
16846;DHT22;8539;53.188;8.696;2023-05-10T15:55:08;15.20;99.90
16846;DHT22;8539;53.188;8.696;2023-05-10T15:57:40;15.20;99.90
16846;DHT22;8539;53.188;8.696;2023-05-10T16:00:11;15.20;99.90
16846;DHT22;8539;53.188;8.696;2023-05-10T16:02:38;15.20;99.90
16846;DHT22;8539;53.188;8.696;2023-05-10T16:05:05;15.20;99.90
16846;DHT22;8539;53.188;8.696;2023-05-10T16:07:31;15.30;99.90
16846;DHT22;8539;53.188;8.696;2023-05-10T16:09:57;15.30;99.90
16846;DHT22;8539;53.188;8.696;2023-05-10T16:12:23;15.30;99.90
16846;DHT22;8539;53.188;8.696;2023-05-10T16:14:49;15.30;99.90
16846;DHT22;8539;53.188;8.696;2023-05-10T16:17:15;15.30;99.90
16846;DHT22;8539;53.188;8.696;2023-05-10T16:19:42;15.30;99.90
16846;DHT22;8539;53.188;8.696;2023-05-10T16:22:08;15.30;99.90
16846;DHT22;8539;53.188;8.696;2023-05-10T16:24:34;15.30;99.90
16846;DHT22;8539;53.188;8.696;2023-05-10T16:27:01;15.30;99.90
16846;DHT22;8539;53.188;8.696;2023-05-10T16:29:27;15.40;99.90